sensor_id;sensor_type;location;lat;lon;timestamp;P1;durP1;ratioP1;P2;durP2;ratioP2
7665;SDS011;3875;46.562;4.898;2024-03-22T00:01:54;13.87;;;12.90;;
7665;SDS011;3875;46.562;4.898;2024-03-22T00:04:20;10.93;;;10.00;;
7665;SDS011;3875;46.562;4.898;2024-03-22T00:06:50;13.00;;;11.57;;
7665;SDS011;3875;46.562;4.898;2024-03-22T00:09:16;10.63;;;9.83;;
7665;SDS011;3875;46.562;4.898;2024-03-22T00:11:43;15.60;;;14.23;;
7665;SDS011;3875;46.562;4.898;2024-03-22T00:14:09;14.43;;;13.40;;
7665;SDS011;3875;46.562;4.898;2024-03-22T00:16:36;12.47;;;11.37;;
7665;SDS011;3875;46.562;4.898;2024-03-22T00:19:02;10.13;;;9.13;;
7665;SDS011;3875;46.562;4.898;2024-03-22T00:21:29;14.33;;;10.07;;
7665;SDS011;3875;46.562;4.898;2024-03-22T00:23:55;17.77;;;16.27;;
7665;SDS011;3875;46.562;4.898;2024-03-22T00:26:26;19.57;;;18.30;;
7665;SDS011;3875;46.562;4.898;2024-03-22T00:28:52;17.97;;;16.53;;
7665;SDS011;3875;46.562;4.898;2024-03-22T00:31:18;19.57;;;18.27;;
7665;SDS011;3875;46.562;4.898;2024-03-22T00:33:44;15.60;;;14.20;;
7665;SDS011;3875;46.562;4.898;2024-03-22T00:36:10;9.10;;;8.13;;
7665;SDS011;3875;46.562;4.898;2024-03-22T00:38:36;7.07;;;6.17;;
7665;SDS011;3875;46.562;4.898;2024-03-22T00:41:05;11.20;;;10.07;;
7665;SDS011;3875;46.562;4.898;2024-03-22T00:43:34;11.90;;;10.80;;
7665;SDS011;3875;46.562;4.898;2024-03-22T00:46:00;19.97;;;18.63;;
7665;SDS011;3875;46.562;4.898;2024-03-22T00:48:27;22.00;;;20.60;;
7665;SDS011;3875;46.562;4.898;2024-03-22T00:50:54;14.80;;;13.73;;
7665;SDS011;3875;46.562;4.898;2024-03-22T00:53:20;20.33;;;19.10;;
7665;SDS011;3875;46.562;4.898;2024-03-22T00:55:46;18.23;;;16.93;;
7665;SDS011;3875;46.562;4.898;2024-03-22T00:58:16;9.07;;;8.23;;
7665;SDS011;3875;46.562;4.898;2024-03-22T01:00:45;13.33;;;12.27;;
7665;SDS011;3875;46.562;4.898;2024-03-22T01:03:11;19.00;;;16.00;;
7665;SDS011;3875;46.562;4.898;2024-03-22T01:05:37;27.07;;;25.07;;
7665;SDS011;3875;46.562;4.898;2024-03-22T01:08:07;29.63;;;27.70;;
7665;SDS011;3875;46.562;4.898;2024-03-22T01:10:40;25.73;;;24.10;;
7665;SDS011;3875;46.562;4.898;2024-03-22T01:13:09;36.27;;;34.23;;
7665;SDS011;3875;46.562;4.898;2024-03-22T01:15:35;30.43;;;28.17;;
7665;SDS011;3875;46.562;4.898;2024-03-22T01:18:01;38.37;;;36.17;;
7665;SDS011;3875;46.562;4.898;2024-03-22T01:20:27;22.50;;;20.60;;
7665;SDS011;3875;46.562;4.898;2024-03-22T01:22:52;18.13;;;17.03;;
7665;SDS011;3875;46.562;4.898;2024-03-22T01:25:18;24.67;;;22.90;;
7665;SDS011;3875;46.562;4.898;2024-03-22T01:27:44;20.23;;;18.80;;
7665;SDS011;3875;46.562;4.898;2024-03-22T01:30:10;24.37;;;22.77;;
7665;SDS011;3875;46.562;4.898;2024-03-22T01:32:36;17.67;;;16.47;;
7665;SDS011;3875;46.562;4.898;2024-03-22T01:35:02;18.37;;;16.83;;
7665;SDS011;3875;46.562;4.898;2024-03-22T01:37:29;11.80;;;11.03;;
7665;SDS011;3875;46.562;4.898;2024-03-22T01:39:55;26.27;;;24.47;;
7665;SDS011;3875;46.562;4.898;2024-03-22T01:42:20;21.10;;;19.47;;
7665;SDS011;3875;46.562;4.898;2024-03-22T01:44:48;28.23;;;26.60;;
7665;SDS011;3875;46.562;4.898;2024-03-22T01:47:14;28.10;;;26.23;;
7665;SDS011;3875;46.562;4.898;2024-03-22T01:49:41;21.17;;;19.67;;
7665;SDS011;3875;46.562;4.898;2024-03-22T01:52:07;31.63;;;29.83;;
7665;SDS011;3875;46.562;4.898;2024-03-22T01:54:32;20.23;;;18.83;;
7665;SDS011;3875;46.562;4.898;2024-03-22T01:56:58;30.37;;;28.50;;
7665;SDS011;3875;46.562;4.898;2024-03-22T01:59:24;37.40;;;34.90;;
7665;SDS011;3875;46.562;4.898;2024-03-22T02:01:51;20.30;;;19.03;;
7665;SDS011;3875;46.562;4.898;2024-03-22T02:04:17;17.70;;;16.40;;
7665;SDS011;3875;46.562;4.898;2024-03-22T02:06:43;14.33;;;13.33;;
7665;SDS011;3875;46.562;4.898;2024-03-22T02:09:08;10.93;;;9.83;;
7665;SDS011;3875;46.562;4.898;2024-03-22T02:11:35;12.47;;;11.70;;
7665;SDS011;3875;46.562;4.898;2024-03-22T02:14:02;15.03;;;13.93;;
7665;SDS011;3875;46.562;4.898;2024-03-22T02:16:28;23.93;;;22.47;;
7665;SDS011;3875;46.562;4.898;2024-03-22T02:18:54;21.13;;;19.80;;
7665;SDS011;3875;46.562;4.898;2024-03-22T02:21:20;24.43;;;23.00;;
7665;SDS011;3875;46.562;4.898;2024-03-22T02:23:46;22.17;;;20.67;;
7665;SDS011;3875;46.562;4.898;2024-03-22T02:26:11;5.53;;;4.93;;
7665;SDS011;3875;46.562;4.898;2024-03-22T02:28:37;9.17;;;5.80;;
7665;SDS011;3875;46.562;4.898;2024-03-22T02:31:03;5.47;;;4.97;;
7665;SDS011;3875;46.562;4.898;2024-03-22T02:33:29;10.67;;;9.57;;
7665;SDS011;3875;46.562;4.898;2024-03-22T02:35:55;18.70;;;17.43;;
7665;SDS011;3875;46.562;4.898;2024-03-22T02:38:21;20.73;;;19.00;;
7665;SDS011;3875;46.562;4.898;2024-03-22T02:40:48;18.70;;;17.40;;
7665;SDS011;3875;46.562;4.898;2024-03-22T02:43:15;14.10;;;13.00;;
7665;SDS011;3875;46.562;4.898;2024-03-22T02:45:44;12.47;;;11.57;;
7665;SDS011;3875;46.562;4.898;2024-03-22T02:48:09;13.43;;;12.53;;
7665;SDS011;3875;46.562;4.898;2024-03-22T02:50:36;17.90;;;16.17;;
7665;SDS011;3875;46.562;4.898;2024-03-22T02:53:02;20.23;;;18.67;;
7665;SDS011;3875;46.562;4.898;2024-03-22T02:55:28;15.93;;;14.80;;
7665;SDS011;3875;46.562;4.898;2024-03-22T02:57:55;22.03;;;20.37;;
7665;SDS011;3875;46.562;4.898;2024-03-22T03:00:22;27.23;;;25.67;;
7665;SDS011;3875;46.562;4.898;2024-03-22T03:02:48;9.53;;;8.63;;
7665;SDS011;3875;46.562;4.898;2024-03-22T03:05:14;28.33;;;26.70;;
7665;SDS011;3875;46.562;4.898;2024-03-22T03:07:40;30.63;;;28.77;;
7665;SDS011;3875;46.562;4.898;2024-03-22T03:10:06;32.87;;;30.63;;
7665;SDS011;3875;46.562;4.898;2024-03-22T03:12:32;36.47;;;34.30;;
7665;SDS011;3875;46.562;4.898;2024-03-22T03:14:58;19.33;;;18.07;;
7665;SDS011;3875;46.562;4.898;2024-03-22T03:17:23;28.90;;;27.37;;
7665;SDS011;3875;46.562;4.898;2024-03-22T03:19:49;27.90;;;25.87;;
7665;SDS011;3875;46.562;4.898;2024-03-22T03:22:15;23.20;;;21.77;;
7665;SDS011;3875;46.562;4.898;2024-03-22T03:24:40;42.37;;;39.90;;
7665;SDS011;3875;46.562;4.898;2024-03-22T03:27:06;42.40;;;39.90;;
7665;SDS011;3875;46.562;4.898;2024-03-22T03:29:32;50.97;;;48.17;;
7665;SDS011;3875;46.562;4.898;2024-03-22T03:31:57;51.73;;;48.77;;
7665;SDS011;3875;46.562;4.898;2024-03-22T03:34:23;70.17;;;66.37;;
7665;SDS011;3875;46.562;4.898;2024-03-22T03:36:49;72.23;;;68.43;;
7665;SDS011;3875;46.562;4.898;2024-03-22T03:39:14;93.63;;;88.57;;
7665;SDS011;3875;46.562;4.898;2024-03-22T03:41:40;133.23;;;126.00;;
7665;SDS011;3875;46.562;4.898;2024-03-22T03:44:06;101.50;;;96.03;;
7665;SDS011;3875;46.562;4.898;2024-03-22T03:46:31;130.83;;;124.00;;
7665;SDS011;3875;46.562;4.898;2024-03-22T03:48:58;88.77;;;83.97;;
7665;SDS011;3875;46.562;4.898;2024-03-22T03:51:24;97.77;;;92.67;;
7665;SDS011;3875;46.562;4.898;2024-03-22T03:53:49;76.40;;;72.23;;
7665;SDS011;3875;46.562;4.898;2024-03-22T03:56:15;92.83;;;87.73;;
7665;SDS011;3875;46.562;4.898;2024-03-22T03:58:40;95.27;;;90.20;;
7665;SDS011;3875;46.562;4.898;2024-03-22T04:01:06;94.27;;;89.17;;
7665;SDS011;3875;46.562;4.898;2024-03-22T04:03:32;125.20;;;118.60;;
7665;SDS011;3875;46.562;4.898;2024-03-22T04:05:58;148.87;;;141.00;;
7665;SDS011;3875;46.562;4.898;2024-03-22T04:08:27;298.53;;;281.60;;
7665;SDS011;3875;46.562;4.898;2024-03-22T04:10:56;230.63;;;218.33;;
7665;SDS011;3875;46.562;4.898;2024-03-22T04:13:22;145.57;;;137.80;;
7665;SDS011;3875;46.562;4.898;2024-03-22T04:15:51;135.53;;;128.40;;
7665;SDS011;3875;46.562;4.898;2024-03-22T04:18:17;399.53;;;375.07;;
7665;SDS011;3875;46.562;4.898;2024-03-22T04:20:52;158.40;;;149.47;;
7665;SDS011;3875;46.562;4.898;2024-03-22T04:23:22;48.20;;;45.60;;
7665;SDS011;3875;46.562;4.898;2024-03-22T04:25:55;22.23;;;20.67;;
7665;SDS011;3875;46.562;4.898;2024-03-22T04:28:22;14.80;;;13.43;;
7665;SDS011;3875;46.562;4.898;2024-03-22T04:30:59;39.60;;;37.20;;
7665;SDS011;3875;46.562;4.898;2024-03-22T04:33:29;118.07;;;111.37;;
7665;SDS011;3875;46.562;4.898;2024-03-22T04:35:56;8.77;;;7.97;;
7665;SDS011;3875;46.562;4.898;2024-03-22T04:38:23;6.47;;;4.63;;
7665;SDS011;3875;46.562;4.898;2024-03-22T04:40:49;6.33;;;5.50;;
7665;SDS011;3875;46.562;4.898;2024-03-22T04:43:15;6.13;;;3.90;;
7665;SDS011;3875;46.562;4.898;2024-03-22T04:45:42;5.30;;;4.80;;
7665;SDS011;3875;46.562;4.898;2024-03-22T04:48:08;5.57;;;3.83;;
7665;SDS011;3875;46.562;4.898;2024-03-22T04:50:34;8.00;;;3.83;;
7665;SDS011;3875;46.562;4.898;2024-03-22T04:53:00;3.97;;;2.97;;
7665;SDS011;3875;46.562;4.898;2024-03-22T04:55:26;4.97;;;3.30;;
7665;SDS011;3875;46.562;4.898;2024-03-22T04:57:52;6.50;;;4.27;;
7665;SDS011;3875;46.562;4.898;2024-03-22T05:00:18;4.60;;;2.80;;
7665;SDS011;3875;46.562;4.898;2024-03-22T05:02:44;8.57;;;5.50;;
7665;SDS011;3875;46.562;4.898;2024-03-22T05:05:10;7.00;;;5.17;;
7665;SDS011;3875;46.562;4.898;2024-03-22T05:07:36;5.60;;;4.70;;
7665;SDS011;3875;46.562;4.898;2024-03-22T05:10:03;8.60;;;4.20;;
7665;SDS011;3875;46.562;4.898;2024-03-22T05:12:29;8.97;;;4.00;;
7665;SDS011;3875;46.562;4.898;2024-03-22T05:14:55;5.67;;;3.27;;
7665;SDS011;3875;46.562;4.898;2024-03-22T05:17:20;9.97;;;5.47;;
7665;SDS011;3875;46.562;4.898;2024-03-22T05:19:46;8.40;;;4.83;;
7665;SDS011;3875;46.562;4.898;2024-03-22T05:22:12;8.23;;;5.60;;
7665;SDS011;3875;46.562;4.898;2024-03-22T05:24:38;4.13;;;3.10;;
7665;SDS011;3875;46.562;4.898;2024-03-22T05:27:03;7.80;;;4.73;;
7665;SDS011;3875;46.562;4.898;2024-03-22T05:29:29;5.17;;;4.07;;
7665;SDS011;3875;46.562;4.898;2024-03-22T05:31:55;6.57;;;5.03;;
7665;SDS011;3875;46.562;4.898;2024-03-22T05:34:20;5.27;;;2.83;;
7665;SDS011;3875;46.562;4.898;2024-03-22T05:36:46;7.00;;;3.23;;
7665;SDS011;3875;46.562;4.898;2024-03-22T05:39:12;6.33;;;5.73;;
7665;SDS011;3875;46.562;4.898;2024-03-22T05:41:37;6.30;;;4.43;;
7665;SDS011;3875;46.562;4.898;2024-03-22T05:44:04;6.40;;;5.80;;
7665;SDS011;3875;46.562;4.898;2024-03-22T05:46:30;6.60;;;3.63;;
7665;SDS011;3875;46.562;4.898;2024-03-22T05:48:56;4.37;;;2.47;;
7665;SDS011;3875;46.562;4.898;2024-03-22T05:51:23;4.47;;;2.50;;
7665;SDS011;3875;46.562;4.898;2024-03-22T05:53:52;3.43;;;2.00;;
7665;SDS011;3875;46.562;4.898;2024-03-22T05:56:17;4.47;;;3.37;;
7665;SDS011;3875;46.562;4.898;2024-03-22T05:58:43;4.47;;;2.40;;
7665;SDS011;3875;46.562;4.898;2024-03-22T06:01:09;6.27;;;3.97;;
7665;SDS011;3875;46.562;4.898;2024-03-22T06:03:37;13.63;;;6.33;;
7665;SDS011;3875;46.562;4.898;2024-03-22T06:06:03;6.97;;;3.27;;
7665;SDS011;3875;46.562;4.898;2024-03-22T06:08:29;11.80;;;4.50;;
7665;SDS011;3875;46.562;4.898;2024-03-22T06:10:56;14.23;;;5.50;;
7665;SDS011;3875;46.562;4.898;2024-03-22T06:13:22;8.20;;;4.23;;
7665;SDS011;3875;46.562;4.898;2024-03-22T06:15:48;7.13;;;4.03;;
7665;SDS011;3875;46.562;4.898;2024-03-22T06:18:14;5.50;;;3.13;;
7665;SDS011;3875;46.562;4.898;2024-03-22T06:20:40;10.13;;;5.63;;
7665;SDS011;3875;46.562;4.898;2024-03-22T06:23:07;7.07;;;4.57;;
7665;SDS011;3875;46.562;4.898;2024-03-22T06:25:33;5.07;;;4.50;;
7665;SDS011;3875;46.562;4.898;2024-03-22T06:27:59;6.27;;;5.20;;
7665;SDS011;3875;46.562;4.898;2024-03-22T06:30:25;4.10;;;2.90;;
7665;SDS011;3875;46.562;4.898;2024-03-22T06:32:51;7.63;;;4.20;;
7665;SDS011;3875;46.562;4.898;2024-03-22T06:35:17;4.27;;;2.27;;
7665;SDS011;3875;46.562;4.898;2024-03-22T06:37:42;5.60;;;4.47;;
7665;SDS011;3875;46.562;4.898;2024-03-22T06:40:08;6.07;;;5.43;;
7665;SDS011;3875;46.562;4.898;2024-03-22T06:42:35;9.73;;;8.83;;
7665;SDS011;3875;46.562;4.898;2024-03-22T06:45:00;6.03;;;2.73;;
7665;SDS011;3875;46.562;4.898;2024-03-22T06:47:27;5.17;;;2.47;;
7665;SDS011;3875;46.562;4.898;2024-03-22T06:49:53;2.97;;;1.43;;
7665;SDS011;3875;46.562;4.898;2024-03-22T06:52:18;5.37;;;2.03;;
7665;SDS011;3875;46.562;4.898;2024-03-22T06:54:45;3.33;;;1.33;;
7665;SDS011;3875;46.562;4.898;2024-03-22T06:57:11;5.67;;;2.10;;
7665;SDS011;3875;46.562;4.898;2024-03-22T06:59:36;3.83;;;1.73;;
7665;SDS011;3875;46.562;4.898;2024-03-22T07:02:02;4.97;;;2.03;;
7665;SDS011;3875;46.562;4.898;2024-03-22T07:04:29;3.40;;;1.77;;
7665;SDS011;3875;46.562;4.898;2024-03-22T07:06:54;4.70;;;2.00;;
7665;SDS011;3875;46.562;4.898;2024-03-22T07:09:20;5.53;;;2.73;;
7665;SDS011;3875;46.562;4.898;2024-03-22T07:11:46;2.57;;;1.63;;
7665;SDS011;3875;46.562;4.898;2024-03-22T07:14:12;4.60;;;2.10;;
7665;SDS011;3875;46.562;4.898;2024-03-22T07:16:37;5.50;;;2.60;;
7665;SDS011;3875;46.562;4.898;2024-03-22T07:19:03;3.47;;;1.57;;
7665;SDS011;3875;46.562;4.898;2024-03-22T07:21:29;4.10;;;2.10;;
7665;SDS011;3875;46.562;4.898;2024-03-22T07:23:55;4.80;;;3.13;;
7665;SDS011;3875;46.562;4.898;2024-03-22T07:26:21;4.90;;;2.93;;
7665;SDS011;3875;46.562;4.898;2024-03-22T07:28:47;11.17;;;4.83;;
7665;SDS011;3875;46.562;4.898;2024-03-22T07:31:12;4.20;;;2.70;;
7665;SDS011;3875;46.562;4.898;2024-03-22T07:33:39;6.13;;;2.60;;
7665;SDS011;3875;46.562;4.898;2024-03-22T07:36:05;4.47;;;1.87;;
7665;SDS011;3875;46.562;4.898;2024-03-22T07:38:31;7.10;;;2.73;;
7665;SDS011;3875;46.562;4.898;2024-03-22T07:40:57;3.53;;;1.50;;
7665;SDS011;3875;46.562;4.898;2024-03-22T07:43:22;4.73;;;2.03;;
7665;SDS011;3875;46.562;4.898;2024-03-22T07:45:48;3.77;;;1.73;;
7665;SDS011;3875;46.562;4.898;2024-03-22T07:48:14;8.43;;;3.13;;
7665;SDS011;3875;46.562;4.898;2024-03-22T07:50:40;5.43;;;2.10;;
7665;SDS011;3875;46.562;4.898;2024-03-22T07:53:06;4.90;;;1.97;;
7665;SDS011;3875;46.562;4.898;2024-03-22T07:55:32;3.10;;;1.67;;
7665;SDS011;3875;46.562;4.898;2024-03-22T07:57:57;4.50;;;2.33;;
7665;SDS011;3875;46.562;4.898;2024-03-22T08:00:23;5.17;;;2.33;;
7665;SDS011;3875;46.562;4.898;2024-03-22T08:02:52;6.43;;;2.23;;
7665;SDS011;3875;46.562;4.898;2024-03-22T08:05:18;5.20;;;2.63;;
7665;SDS011;3875;46.562;4.898;2024-03-22T08:07:44;7.23;;;2.97;;
7665;SDS011;3875;46.562;4.898;2024-03-22T08:10:10;7.73;;;2.93;;
7665;SDS011;3875;46.562;4.898;2024-03-22T08:12:36;8.17;;;3.30;;
7665;SDS011;3875;46.562;4.898;2024-03-22T08:15:01;4.97;;;2.83;;
7665;SDS011;3875;46.562;4.898;2024-03-22T08:17:28;6.93;;;2.67;;
7665;SDS011;3875;46.562;4.898;2024-03-22T08:19:54;6.93;;;3.50;;
7665;SDS011;3875;46.562;4.898;2024-03-22T08:22:19;4.27;;;2.13;;
7665;SDS011;3875;46.562;4.898;2024-03-22T08:24:45;4.37;;;2.87;;
7665;SDS011;3875;46.562;4.898;2024-03-22T08:27:11;7.03;;;3.63;;
7665;SDS011;3875;46.562;4.898;2024-03-22T08:29:37;4.77;;;3.90;;
7665;SDS011;3875;46.562;4.898;2024-03-22T08:32:03;7.40;;;6.67;;
7665;SDS011;3875;46.562;4.898;2024-03-22T08:34:30;9.57;;;8.87;;
7665;SDS011;3875;46.562;4.898;2024-03-22T08:36:57;8.63;;;7.93;;
7665;SDS011;3875;46.562;4.898;2024-03-22T08:39:23;7.67;;;6.97;;
7665;SDS011;3875;46.562;4.898;2024-03-22T08:41:49;6.83;;;6.30;;
7665;SDS011;3875;46.562;4.898;2024-03-22T08:44:17;7.63;;;6.87;;
7665;SDS011;3875;46.562;4.898;2024-03-22T08:46:43;7.17;;;6.43;;
7665;SDS011;3875;46.562;4.898;2024-03-22T08:49:08;8.37;;;7.67;;
7665;SDS011;3875;46.562;4.898;2024-03-22T08:51:34;5.03;;;4.53;;
7665;SDS011;3875;46.562;4.898;2024-03-22T08:54:00;6.47;;;5.87;;
7665;SDS011;3875;46.562;4.898;2024-03-22T08:56:26;31.35;;;29.15;;
7665;SDS011;3875;46.562;4.898;2024-03-22T08:58:52;30.27;;;28.27;;
7665;SDS011;3875;46.562;4.898;2024-03-22T09:01:18;12.47;;;11.37;;
7665;SDS011;3875;46.562;4.898;2024-03-22T09:03:43;14.53;;;13.43;;
7665;SDS011;3875;46.562;4.898;2024-03-22T09:06:12;13.20;;;12.10;;
7665;SDS011;3875;46.562;4.898;2024-03-22T09:08:38;15.07;;;13.67;;
7665;SDS011;3875;46.562;4.898;2024-03-22T09:11:03;13.33;;;12.13;;
7665;SDS011;3875;46.562;4.898;2024-03-22T09:13:29;17.10;;;15.80;;
7665;SDS011;3875;46.562;4.898;2024-03-22T09:15:56;10.77;;;9.97;;
7665;SDS011;3875;46.562;4.898;2024-03-22T09:18:25;14.33;;;13.23;;
7665;SDS011;3875;46.562;4.898;2024-03-22T09:20:54;13.07;;;12.00;;
7665;SDS011;3875;46.562;4.898;2024-03-22T09:23:21;14.03;;;12.77;;
7665;SDS011;3875;46.562;4.898;2024-03-22T09:25:46;15.93;;;14.70;;
7665;SDS011;3875;46.562;4.898;2024-03-22T09:28:13;13.77;;;12.50;;
7665;SDS011;3875;46.562;4.898;2024-03-22T09:30:39;16.70;;;15.70;;
7665;SDS011;3875;46.562;4.898;2024-03-22T09:33:06;21.80;;;19.97;;
7665;SDS011;3875;46.562;4.898;2024-03-22T09:35:33;21.33;;;19.67;;
7665;SDS011;3875;46.562;4.898;2024-03-22T09:38:02;22.30;;;20.80;;
7665;SDS011;3875;46.562;4.898;2024-03-22T09:40:28;18.93;;;17.30;;
7665;SDS011;3875;46.562;4.898;2024-03-22T09:42:54;24.87;;;22.97;;
7665;SDS011;3875;46.562;4.898;2024-03-22T09:45:27;19.70;;;18.27;;
7665;SDS011;3875;46.562;4.898;2024-03-22T09:47:54;19.23;;;17.83;;
7665;SDS011;3875;46.562;4.898;2024-03-22T09:50:21;24.97;;;22.67;;
7665;SDS011;3875;46.562;4.898;2024-03-22T09:52:48;22.57;;;21.00;;
7665;SDS011;3875;46.562;4.898;2024-03-22T09:55:15;21.80;;;19.87;;
7665;SDS011;3875;46.562;4.898;2024-03-22T09:57:41;123.85;;;115.30;;
7665;SDS011;3875;46.562;4.898;2024-03-22T10:00:09;105.17;;;98.90;;
7665;SDS011;3875;46.562;4.898;2024-03-22T10:02:39;104.80;;;97.37;;
7665;SDS011;3875;46.562;4.898;2024-03-22T10:05:05;106.47;;;100.23;;
7665;SDS011;3875;46.562;4.898;2024-03-22T10:07:39;107.57;;;100.90;;
7665;SDS011;3875;46.562;4.898;2024-03-22T10:10:05;844.83;;;782.63;;
7665;SDS011;3875;46.562;4.898;2024-03-22T10:12:32;83.80;;;79.03;;
7665;SDS011;3875;46.562;4.898;2024-03-22T10:14:58;88.13;;;82.70;;
7665;SDS011;3875;46.562;4.898;2024-03-22T10:17:26;69.57;;;65.40;;
7665;SDS011;3875;46.562;4.898;2024-03-22T10:19:53;111.50;;;104.23;;
7665;SDS011;3875;46.562;4.898;2024-03-22T10:22:22;70.17;;;65.93;;
7665;SDS011;3875;46.562;4.898;2024-03-22T10:24:49;81.57;;;76.43;;
7665;SDS011;3875;46.562;4.898;2024-03-22T10:27:15;76.47;;;71.90;;
7665;SDS011;3875;46.562;4.898;2024-03-22T10:29:43;107.53;;;99.53;;
7665;SDS011;3875;46.562;4.898;2024-03-22T10:32:09;74.93;;;70.50;;
7665;SDS011;3875;46.562;4.898;2024-03-22T10:34:37;60.80;;;56.80;;
7665;SDS011;3875;46.562;4.898;2024-03-22T10:37:04;83.73;;;78.53;;
7665;SDS011;3875;46.562;4.898;2024-03-22T10:39:31;168.13;;;157.37;;
7665;SDS011;3875;46.562;4.898;2024-03-22T10:41:58;197.93;;;185.03;;
7665;SDS011;3875;46.562;4.898;2024-03-22T10:44:23;260.77;;;243.67;;
7665;SDS011;3875;46.562;4.898;2024-03-22T10:46:52;247.77;;;231.37;;
7665;SDS011;3875;46.562;4.898;2024-03-22T10:49:20;228.57;;;213.33;;
7665;SDS011;3875;46.562;4.898;2024-03-22T10:51:54;237.33;;;221.63;;
7665;SDS011;3875;46.562;4.898;2024-03-22T10:54:28;201.90;;;188.90;;
7665;SDS011;3875;46.562;4.898;2024-03-22T10:56:59;246.07;;;229.57;;
7665;SDS011;3875;46.562;4.898;2024-03-22T10:59:26;433.87;;;404.07;;
7665;SDS011;3875;46.562;4.898;2024-03-22T11:01:52;457.30;;;425.97;;
7665;SDS011;3875;46.562;4.898;2024-03-22T11:04:21;526.87;;;490.07;;
7665;SDS011;3875;46.562;4.898;2024-03-22T11:06:51;204.70;;;192.13;;
7665;SDS011;3875;46.562;4.898;2024-03-22T11:09:21;185.37;;;174.10;;
7665;SDS011;3875;46.562;4.898;2024-03-22T11:11:48;152.97;;;143.40;;
7665;SDS011;3875;46.562;4.898;2024-03-22T11:14:16;185.57;;;174.23;;
7665;SDS011;3875;46.562;4.898;2024-03-22T11:16:43;304.33;;;284.37;;
7665;SDS011;3875;46.562;4.898;2024-03-22T11:19:09;373.93;;;348.33;;
7665;SDS011;3875;46.562;4.898;2024-03-22T11:21:35;377.70;;;352.30;;
7665;SDS011;3875;46.562;4.898;2024-03-22T11:24:01;396.03;;;369.07;;
7665;SDS011;3875;46.562;4.898;2024-03-22T11:26:30;411.17;;;382.87;;
7665;SDS011;3875;46.562;4.898;2024-03-22T11:28:55;947.93;;;873.90;;
7665;SDS011;3875;46.562;4.898;2024-03-22T11:31:22;850.13;;;785.30;;
7665;SDS011;3875;46.562;4.898;2024-03-22T11:33:52;685.40;;;634.03;;
7665;SDS011;3875;46.562;4.898;2024-03-22T11:36:22;884.50;;;818.23;;
7665;SDS011;3875;46.562;4.898;2024-03-22T11:38:48;527.17;;;488.53;;
7665;SDS011;3875;46.562;4.898;2024-03-22T11:41:20;475.50;;;441.17;;
7665;SDS011;3875;46.562;4.898;2024-03-22T11:43:55;707.30;;;650.90;;
7665;SDS011;3875;46.562;4.898;2024-03-22T11:46:23;405.53;;;376.67;;
7665;SDS011;3875;46.562;4.898;2024-03-22T11:48:52;357.53;;;332.93;;
7665;SDS011;3875;46.562;4.898;2024-03-22T11:51:19;354.93;;;330.13;;
7665;SDS011;3875;46.562;4.898;2024-03-22T11:53:49;336.07;;;313.27;;
7665;SDS011;3875;46.562;4.898;2024-03-22T11:56:17;370.13;;;344.30;;
7665;SDS011;3875;46.562;4.898;2024-03-22T11:58:45;434.20;;;403.47;;
7665;SDS011;3875;46.562;4.898;2024-03-22T12:01:12;431.13;;;400.73;;
7665;SDS011;3875;46.562;4.898;2024-03-22T12:03:38;452.13;;;420.27;;
7665;SDS011;3875;46.562;4.898;2024-03-22T12:06:05;450.13;;;418.23;;
7665;SDS011;3875;46.562;4.898;2024-03-22T12:08:31;484.40;;;450.23;;
7665;SDS011;3875;46.562;4.898;2024-03-22T12:10:57;463.87;;;430.80;;
7665;SDS011;3875;46.562;4.898;2024-03-22T12:13:22;485.33;;;450.77;;
7665;SDS011;3875;46.562;4.898;2024-03-22T12:15:48;508.23;;;471.53;;
7665;SDS011;3875;46.562;4.898;2024-03-22T12:18:14;531.80;;;493.83;;
7665;SDS011;3875;46.562;4.898;2024-03-22T12:20:39;506.50;;;470.17;;
7665;SDS011;3875;46.562;4.898;2024-03-22T12:23:05;547.87;;;508.57;;
7665;SDS011;3875;46.562;4.898;2024-03-22T12:25:31;529.60;;;491.70;;
7665;SDS011;3875;46.562;4.898;2024-03-22T12:27:56;528.13;;;490.27;;
7665;SDS011;3875;46.562;4.898;2024-03-22T12:30:22;509.20;;;472.87;;
7665;SDS011;3875;46.562;4.898;2024-03-22T12:32:48;499.17;;;463.53;;
7665;SDS011;3875;46.562;4.898;2024-03-22T12:35:13;307.90;;;287.50;;
7665;SDS011;3875;46.562;4.898;2024-03-22T12:37:39;266.27;;;249.20;;
7665;SDS011;3875;46.562;4.898;2024-03-22T12:40:05;256.60;;;239.90;;
7665;SDS011;3875;46.562;4.898;2024-03-22T12:42:33;303.35;;;282.60;;
7665;SDS011;3875;46.562;4.898;2024-03-22T12:44:59;313.00;;;291.93;;
7665;SDS011;3875;46.562;4.898;2024-03-22T12:47:24;297.87;;;278.07;;
7665;SDS011;3875;46.562;4.898;2024-03-22T12:49:50;280.57;;;262.10;;
7665;SDS011;3875;46.562;4.898;2024-03-22T12:52:16;257.00;;;240.33;;
7665;SDS011;3875;46.562;4.898;2024-03-22T12:54:42;236.80;;;221.53;;
7665;SDS011;3875;46.562;4.898;2024-03-22T12:57:07;268.67;;;251.37;;
7665;SDS011;3875;46.562;4.898;2024-03-22T12:59:33;252.97;;;236.20;;
7665;SDS011;3875;46.562;4.898;2024-03-22T13:01:59;224.00;;;209.77;;
7665;SDS011;3875;46.562;4.898;2024-03-22T13:04:26;180.97;;;169.17;;
7665;SDS011;3875;46.562;4.898;2024-03-22T13:06:52;183.73;;;171.93;;
7665;SDS011;3875;46.562;4.898;2024-03-22T13:09:18;224.67;;;210.30;;
7665;SDS011;3875;46.562;4.898;2024-03-22T13:11:46;241.77;;;226.57;;
7665;SDS011;3875;46.562;4.898;2024-03-22T13:14:13;274.73;;;255.83;;
7665;SDS011;3875;46.562;4.898;2024-03-22T13:16:39;220.17;;;206.00;;
7665;SDS011;3875;46.562;4.898;2024-03-22T13:19:07;496.13;;;461.07;;
7665;SDS011;3875;46.562;4.898;2024-03-22T13:21:37;383.63;;;357.67;;
7665;SDS011;3875;46.562;4.898;2024-03-22T13:24:03;336.73;;;314.07;;
7665;SDS011;3875;46.562;4.898;2024-03-22T13:26:29;211.97;;;197.77;;
7665;SDS011;3875;46.562;4.898;2024-03-22T13:28:55;227.60;;;212.73;;
7665;SDS011;3875;46.562;4.898;2024-03-22T13:31:21;312.27;;;291.37;;
7665;SDS011;3875;46.562;4.898;2024-03-22T13:33:46;236.90;;;221.53;;
7665;SDS011;3875;46.562;4.898;2024-03-22T13:36:12;280.70;;;262.00;;
7665;SDS011;3875;46.562;4.898;2024-03-22T13:38:38;237.03;;;221.17;;
7665;SDS011;3875;46.562;4.898;2024-03-22T13:41:04;343.47;;;320.03;;
7665;SDS011;3875;46.562;4.898;2024-03-22T13:43:31;316.93;;;295.77;;
7665;SDS011;3875;46.562;4.898;2024-03-22T13:45:57;330.63;;;308.13;;
7665;SDS011;3875;46.562;4.898;2024-03-22T13:48:23;299.37;;;279.70;;
7665;SDS011;3875;46.562;4.898;2024-03-22T13:50:53;218.10;;;203.80;;
7665;SDS011;3875;46.562;4.898;2024-03-22T13:53:20;191.43;;;178.97;;
7665;SDS011;3875;46.562;4.898;2024-03-22T13:55:52;208.40;;;195.03;;
7665;SDS011;3875;46.562;4.898;2024-03-22T13:58:18;222.10;;;207.93;;
7665;SDS011;3875;46.562;4.898;2024-03-22T14:00:44;191.47;;;179.37;;
7665;SDS011;3875;46.562;4.898;2024-03-22T14:03:13;206.97;;;192.87;;
7665;SDS011;3875;46.562;4.898;2024-03-22T14:05:39;175.73;;;164.43;;
7665;SDS011;3875;46.562;4.898;2024-03-22T14:08:05;328.83;;;307.07;;
7665;SDS011;3875;46.562;4.898;2024-03-22T14:10:31;366.00;;;340.30;;
7665;SDS011;3875;46.562;4.898;2024-03-22T14:13:02;387.37;;;360.80;;
7665;SDS011;3875;46.562;4.898;2024-03-22T14:15:28;291.83;;;272.00;;
7665;SDS011;3875;46.562;4.898;2024-03-22T14:17:57;256.37;;;240.07;;
7665;SDS011;3875;46.562;4.898;2024-03-22T14:20:23;257.70;;;240.13;;
7665;SDS011;3875;46.562;4.898;2024-03-22T14:22:50;316.70;;;295.23;;
7665;SDS011;3875;46.562;4.898;2024-03-22T14:25:16;388.97;;;361.87;;
7665;SDS011;3875;46.562;4.898;2024-03-22T14:27:42;418.80;;;388.73;;
7665;SDS011;3875;46.562;4.898;2024-03-22T14:30:11;447.13;;;415.90;;
7665;SDS011;3875;46.562;4.898;2024-03-22T14:32:38;420.10;;;390.90;;
7665;SDS011;3875;46.562;4.898;2024-03-22T14:35:08;416.83;;;387.90;;
7665;SDS011;3875;46.562;4.898;2024-03-22T14:37:38;397.13;;;369.73;;
7665;SDS011;3875;46.562;4.898;2024-03-22T14:40:14;424.57;;;394.93;;
7665;SDS011;3875;46.562;4.898;2024-03-22T14:42:42;417.13;;;388.07;;
7665;SDS011;3875;46.562;4.898;2024-03-22T14:45:08;403.77;;;375.57;;